createdAt,value
2022-09-21T00:01:39.366Z,98351.34
2022-09-21T00:04:07.868Z,98354.13
2022-09-21T00:06:37.322Z,98355.22
2022-09-21T00:09:08.217Z,98346.78
2022-09-21T00:11:38.181Z,98357.50
2022-09-21T00:14:10.587Z,98350.66
2022-09-21T00:16:39.842Z,98349.94
2022-09-21T00:19:08.261Z,98353.69
2022-09-21T00:21:38.153Z,98353.06
2022-09-21T00:24:07.517Z,98357.66
2022-09-21T00:26:37.329Z,98354.41
2022-09-21T00:29:06.932Z,98350.22
2022-09-21T00:31:35.599Z,98350.47
2022-09-21T00:34:07.743Z,98354.06
2022-09-21T00:36:36.380Z,98353.34
2022-09-21T00:39:05.542Z,98359.63
2022-09-21T00:41:36.954Z,98359.63
2022-09-21T00:44:32.211Z,98346.75
2022-09-21T00:47:08.708Z,98356.50
2022-09-21T00:49:38.065Z,98358.41
2022-09-21T00:52:08.727Z,98350.59
2022-09-21T00:54:43.514Z,98354.34
2022-09-21T00:57:13.691Z,98352.78
2022-09-21T00:59:44.365Z,98356.38
2022-09-21T01:02:13.166Z,98353.13
2022-09-21T01:04:41.411Z,98354.31
2022-09-21T01:07:18.533Z,98352.66
2022-09-21T01:09:51.738Z,98356.38
2022-09-21T01:12:39.688Z,98352.03
2022-09-21T01:15:22.595Z,98365.50
2022-09-21T01:18:00.560Z,98362.16
2022-09-21T01:20:57.613Z,98365.84
2022-09-21T01:23:47.011Z,98360.69
2022-09-21T01:26:32.835Z,98366.09
2022-09-21T01:29:21.319Z,98362.88
2022-09-21T01:31:56.538Z,98368.28
2022-09-21T01:34:32.065Z,98365.63
2022-09-21T01:37:07.106Z,98356.00
2022-09-21T01:39:37.063Z,98357.94
2022-09-21T01:42:08.532Z,98357.22
2022-09-21T01:44:41.123Z,98365.13
2022-09-21T01:47:13.005Z,98360.94
2022-09-21T01:49:46.648Z,98362.00
2022-09-21T01:52:20.919Z,98363.78
2022-09-21T01:54:55.046Z,98368.22
2022-09-21T01:57:30.666Z,98366.44
2022-09-21T02:00:02.659Z,98370.16
2022-09-21T02:02:38.310Z,98368.34
2022-09-21T02:05:08.141Z,98366.56
2022-09-21T02:07:39.401Z,98369.31
2022-09-21T02:10:11.059Z,98364.16
2022-09-21T02:12:39.726Z,98362.59
2022-09-21T02:15:11.333Z,98368.09
2022-09-21T02:17:54.750Z,98370.00
2022-09-21T02:20:29.866Z,98369.28
2022-09-21T02:23:07.713Z,98364.13
2022-09-21T02:25:48.215Z,98368.69
2022-09-21T02:28:29.996Z,98369.75
2022-09-21T02:31:08.984Z,98376.13
2022-09-21T02:33:49.334Z,98369.16
2022-09-21T02:36:26.472Z,98367.34
2022-09-21T02:39:05.156Z,98367.56
2022-09-21T02:41:47.676Z,98376.59
2022-09-21T02:44:24.665Z,98378.50
2022-09-21T02:46:59.261Z,98379.56
2022-09-21T02:49:33.750Z,98374.41
2022-09-21T02:52:07.058Z,98375.38
2022-09-21T02:54:37.029Z,98381.59
2022-09-21T02:57:07.285Z,98386.19
2022-09-21T02:59:36.027Z,98381.97
2022-09-21T03:02:07.041Z,98390.00
2022-09-21T03:04:35.539Z,98383.16
2022-09-21T03:07:03.787Z,98380.72
2022-09-21T03:09:32.044Z,98379.91
2022-09-21T03:12:00.277Z,98390.47
2022-09-21T03:14:28.538Z,98386.13
2022-09-21T03:16:56.908Z,98384.47
2022-09-21T03:19:26.838Z,98376.53
2022-09-21T03:21:55.614Z,98379.41
2022-09-21T03:24:37.750Z,98382.03
2022-09-21T03:27:06.213Z,98385.78
2022-09-21T03:29:34.486Z,98386.00
2022-09-21T03:32:03.583Z,98386.09
2022-09-21T03:34:34.364Z,98385.47
2022-09-21T03:37:03.074Z,98390.03
2022-09-21T03:39:31.823Z,98389.44
2022-09-21T03:42:00.466Z,98387.72
2022-09-21T03:44:29.501Z,98394.72
2022-09-21T03:46:58.029Z,98387.03
2022-09-21T03:49:26.290Z,98398.50
2022-09-21T03:51:56.191Z,98395.16
2022-09-21T03:54:24.671Z,98398.03
2022-09-21T03:56:53.116Z,98391.28
2022-09-21T03:59:21.585Z,98399.81
2022-09-21T04:01:49.939Z,98397.28
2022-09-21T04:04:18.167Z,98401.81
2022-09-21T04:06:47.040Z,98409.03
2022-09-21T04:09:16.614Z,98405.66
2022-09-21T04:11:46.699Z,98412.88
2022-09-21T04:14:15.232Z,98415.50
2022-09-21T04:16:43.492Z,98418.25
2022-09-21T04:19:11.731Z,98421.84
2022-09-21T04:21:40.011Z,98421.13
2022-09-21T04:24:08.555Z,98422.06
2022-09-21T04:26:38.399Z,98427.44
2022-09-21T04:29:07.288Z,98423.25
2022-09-21T04:31:35.904Z,98420.72
2022-09-21T04:34:04.127Z,98422.63
2022-09-21T04:36:36.538Z,98434.13
2022-09-21T04:39:05.891Z,98431.50
2022-09-21T04:41:34.294Z,98436.66
2022-09-21T04:44:04.254Z,98430.41
2022-09-21T04:46:32.583Z,98432.13
2022-09-21T04:49:00.918Z,98430.31
2022-09-21T04:51:29.181Z,98432.00
2022-09-21T04:53:57.439Z,98435.47
2022-09-21T04:56:25.625Z,98434.66
2022-09-21T04:58:53.941Z,98441.59
2022-09-21T05:01:23.742Z,98443.28
2022-09-21T05:03:52.003Z,98447.63
2022-09-21T05:06:20.241Z,98457.34
2022-09-21T05:09:05.966Z,98449.41
2022-09-21T05:11:34.201Z,98455.78
2022-09-21T05:14:02.441Z,98455.78
2022-09-21T05:16:32.104Z,98457.66
2022-09-21T05:19:00.366Z,98467.25
2022-09-21T05:21:28.859Z,98462.09
2022-09-21T05:23:57.445Z,98466.44
2022-09-21T05:26:26.156Z,98464.72
2022-09-21T05:28:55.399Z,98465.47
2022-09-21T05:31:39.393Z,98466.31
2022-09-21T05:34:27.769Z,98473.41
2022-09-21T05:37:03.822Z,98473.50
2022-09-21T05:39:32.896Z,98470.75
2022-09-21T05:42:02.462Z,98482.28
2022-09-21T05:44:31.385Z,98480.66
2022-09-21T05:47:10.177Z,98486.81
2022-09-21T05:49:51.286Z,98487.88
2022-09-21T05:52:31.532Z,98493.97
2022-09-21T05:55:44.360Z,98493.16
2022-09-21T05:58:29.533Z,98498.44
2022-09-21T06:01:16.119Z,98497.47
2022-09-21T06:03:48.760Z,98499.03
2022-09-21T06:06:22.296Z,98500.63
2022-09-21T06:08:51.139Z,98495.16
2022-09-21T06:11:19.927Z,98504.53
2022-09-21T06:13:48.173Z,98504.41
2022-09-21T06:16:16.421Z,98507.66
2022-09-21T06:18:46.135Z,98511.88
2022-09-21T06:21:14.380Z,98505.53
2022-09-21T06:23:42.708Z,98501.81
2022-09-21T06:26:10.968Z,98503.41
2022-09-21T06:28:39.204Z,98511.94
2022-09-21T06:31:07.549Z,98507.28
2022-09-21T06:33:37.758Z,98509.72
2022-09-21T06:36:07.855Z,98506.84
2022-09-21T06:38:36.960Z,98506.53
2022-09-21T06:41:06.302Z,98509.78
2022-09-21T06:43:34.723Z,98508.59
2022-09-21T06:46:04.016Z,98513.56
2022-09-21T06:48:35.112Z,98511.53
2022-09-21T06:51:07.294Z,98510.13
2022-09-21T06:53:36.111Z,98506.19
2022-09-21T06:56:06.858Z,98507.50
2022-09-21T06:58:36.217Z,98506.34
2022-09-21T07:01:09.662Z,98508.44
2022-09-21T07:03:39.094Z,98503.50
2022-09-21T07:06:11.722Z,98504.13
2022-09-21T07:11:28.574Z,98507.09
2022-09-21T07:13:58.442Z,98508.75
2022-09-21T07:16:28.013Z,98501.41
2022-09-21T07:18:57.019Z,98507.22
2022-09-21T07:21:27.383Z,98513.81
2022-09-21T07:23:55.633Z,98518.66
2022-09-21T07:26:23.881Z,98507.59
2022-09-21T07:28:52.128Z,98512.31
2022-09-21T07:31:20.454Z,98512.69
2022-09-21T07:33:48.720Z,98510.44
2022-09-21T07:36:17.856Z,98517.75
2022-09-21T07:38:47.456Z,98511.88
2022-09-21T07:41:16.201Z,98515.63
2022-09-21T07:43:44.535Z,98522.97
2022-09-21T07:46:15.561Z,98519.59
2022-09-21T07:48:44.169Z,98526.66
2022-09-21T07:51:15.078Z,98531.34
2022-09-21T07:53:46.709Z,98534.50
2022-09-21T07:56:18.104Z,98533.88
2022-09-21T07:59:02.922Z,98522.94
2022-09-21T08:01:32.238Z,98524.34
2022-09-21T08:04:01.280Z,98530.13
2022-09-21T08:06:32.995Z,98525.34
2022-09-21T08:09:03.935Z,98522.34
2022-09-21T08:11:33.622Z,98529.19
2022-09-21T08:14:04.273Z,98522.66
2022-09-21T08:16:34.016Z,98524.09
2022-09-21T08:19:03.159Z,98526.38
2022-09-21T08:21:31.436Z,98528.63
2022-09-21T08:23:59.783Z,98534.41
2022-09-21T08:26:29.408Z,98531.41
2022-09-21T08:28:58.961Z,98538.00
2022-09-21T08:31:27.815Z,98531.38
2022-09-21T08:33:57.303Z,98535.19
2022-09-21T08:36:26.401Z,98532.03
2022-09-21T08:38:56.653Z,98545.34
2022-09-21T08:41:32.292Z,98545.44
2022-09-21T08:44:05.913Z,98536.84
2022-09-21T08:46:35.568Z,98538.47
2022-09-21T08:49:08.414Z,98541.88
2022-09-21T08:51:45.664Z,98539.19
2022-09-21T08:54:20.799Z,98544.31
2022-09-21T08:57:05.150Z,98546.88
2022-09-21T08:59:35.627Z,98550.88
2022-09-21T09:02:23.025Z,98548.84
2022-09-21T09:05:01.436Z,98538.53
2022-09-21T09:07:55.996Z,98541.25
2022-09-21T09:10:38.457Z,98538.66
2022-09-21T09:13:39.364Z,98532.69
2022-09-21T09:16:17.126Z,98523.31
2022-09-21T09:18:52.721Z,98522.47
2022-09-21T09:21:31.407Z,98528.19
2022-09-21T09:24:04.703Z,98521.41
2022-09-21T09:26:42.684Z,98523.47
2022-09-21T09:29:22.984Z,98509.34
2022-09-21T09:31:55.546Z,98506.53
2022-09-21T09:34:30.671Z,98497.50
2022-09-21T09:37:02.069Z,98501.81
2022-09-21T09:39:31.765Z,98501.31
2022-09-21T09:42:32.984Z,98498.69
2022-09-21T09:45:31.512Z,98498.69
2022-09-21T09:48:16.635Z,98497.88
2022-09-21T09:50:45.119Z,98496.66
2022-09-21T09:53:18.078Z,98489.91
2022-09-21T09:55:49.831Z,98492.84
2022-09-21T09:58:21.467Z,98492.22
2022-09-21T10:00:55.283Z,98479.50
2022-09-21T10:03:25.943Z,98480.84
2022-09-21T10:05:55.075Z,98483.31
2022-09-21T10:08:46.492Z,98472.63
2022-09-21T10:11:17.120Z,98472.78
2022-09-21T10:13:48.496Z,98471.56
2022-09-21T10:16:23.762Z,98474.69
2022-09-21T10:18:56.275Z,98474.81
2022-09-21T10:21:26.616Z,98469.38
2022-09-21T10:24:00.193Z,98462.44
2022-09-21T10:26:33.611Z,98459.66
2022-09-21T10:29:03.706Z,98461.88
2022-09-21T10:31:33.401Z,98459.28
2022-09-21T10:34:14.411Z,98461.00
2022-09-21T10:36:51.654Z,98460.03
2022-09-21T10:39:27.426Z,98460.44
2022-09-21T10:42:05.144Z,98458.13
2022-09-21T10:44:42.506Z,98460.22
2022-09-21T10:47:24.927Z,98458.75
2022-09-21T10:49:55.708Z,98457.91
2022-09-21T10:52:32.463Z,98452.47
2022-09-21T10:55:01.054Z,98456.53
2022-09-21T10:57:30.723Z,98453.75
2022-09-21T10:59:59.795Z,98450.47
2022-09-21T11:02:38.592Z,98452.88
2022-09-21T11:05:16.450Z,98446.19
2022-09-21T11:07:51.154Z,98445.25
2022-09-21T11:10:30.846Z,98441.78
2022-09-21T11:13:19.294Z,98438.19
2022-09-21T11:15:56.228Z,98437.41
2022-09-21T11:18:37.675Z,98434.84
2022-09-21T11:21:16.358Z,98437.06
2022-09-21T11:23:56.474Z,98430.56
2022-09-21T11:26:30.691Z,98434.59
2022-09-21T11:29:07.015Z,98437.16
2022-09-21T11:31:53.893Z,98428.94
2022-09-21T11:35:17.265Z,98425.28
2022-09-21T11:38:04.326Z,98428.22
2022-09-21T11:41:01.829Z,98424.94
2022-09-21T11:43:52.407Z,98425.81
2022-09-21T11:46:31.078Z,98425.88
2022-09-21T11:49:19.667Z,98414.69
2022-09-21T11:52:09.196Z,98421.34
2022-09-21T11:55:06.147Z,98420.34
2022-09-21T11:57:42.454Z,98408.13
2022-09-21T12:00:17.007Z,98404.63
2022-09-21T12:03:32.176Z,98407.31
2022-09-21T12:06:17.608Z,98407.31
2022-09-21T12:09:04.887Z,98405.50
2022-09-21T12:11:43.123Z,98405.75
2022-09-21T12:14:23.979Z,98401.66
2022-09-21T12:17:06.152Z,98397.69
2022-09-21T12:19:45.744Z,98390.00
2022-09-21T12:22:19.619Z,98395.44
2022-09-21T12:24:53.556Z,98392.75
2022-09-21T12:27:30.678Z,98386.75
2022-09-21T12:30:03.883Z,98388.41
2022-09-21T12:32:49.456Z,98383.63
2022-09-21T12:35:23.950Z,98382.59
2022-09-21T12:37:59.746Z,98381.78
2022-09-21T12:40:39.533Z,98376.63
2022-09-21T12:43:23.038Z,98376.63
2022-09-21T12:45:59.409Z,98365.41
2022-09-21T12:48:36.508Z,98368.75
2022-09-21T12:51:15.555Z,98377.28
2022-09-21T12:53:50.762Z,98372.94
2022-09-21T12:56:37.559Z,98365.81
2022-09-21T12:59:24.582Z,98371.38
2022-09-21T13:02:00.696Z,98362.19
2022-09-21T13:04:53.403Z,98369.66
2022-09-21T13:07:55.373Z,98364.19
2022-09-21T13:10:39.641Z,98362.88
2022-09-21T13:13:19.894Z,98359.47
2022-09-21T13:15:50.062Z,98364.44
2022-09-21T13:18:25.225Z,98359.22
2022-09-21T13:20:55.604Z,98353.63
2022-09-21T13:23:29.568Z,98347.84
2022-09-21T13:26:05.699Z,98348.94
2022-09-21T13:29:06.687Z,98343.72
2022-09-21T13:31:57.643Z,98345.84
2022-09-21T13:34:29.816Z,98339.84
2022-09-21T13:37:35.110Z,98344.63
2022-09-21T13:40:40.885Z,98336.94
2022-09-21T13:43:21.567Z,98333.41
2022-09-21T13:45:57.883Z,98342.94
2022-09-21T13:48:34.552Z,98337.53
2022-09-21T13:51:10.248Z,98331.75
2022-09-21T13:53:42.172Z,98334.44
2022-09-21T13:56:20.334Z,98324.50
2022-09-21T13:58:53.183Z,98324.94
2022-09-21T14:04:26.484Z,98325.13
2022-09-21T14:06:57.086Z,98324.94
2022-09-21T14:09:29.621Z,98319.13
2022-09-21T14:12:02.746Z,98317.91
2022-09-21T14:14:37.216Z,98324.16
2022-09-21T14:17:33.281Z,98322.72
2022-09-21T14:20:02.294Z,98320.84
2022-09-21T14:22:44.120Z,98322.91
2022-09-21T14:25:50.787Z,98318.75
2022-09-21T14:28:23.494Z,98326.47
2022-09-21T14:30:57.866Z,98318.34
2022-09-21T14:33:34.005Z,98315.59
2022-09-21T14:36:08.743Z,98318.91
2022-09-21T14:38:51.677Z,98323.00
2022-09-21T14:41:25.497Z,98322.16
2022-09-21T14:43:56.650Z,98321.50
2022-09-21T14:46:59.642Z,98326.03
2022-09-21T14:49:52.237Z,98318.94
2022-09-21T14:52:33.114Z,98314.34
2022-09-21T14:55:15.770Z,98320.34
2022-09-21T14:58:21.615Z,98312.41
2022-09-21T15:00:50.292Z,98310.75
2022-09-21T15:03:44.840Z,98310.28
2022-09-21T15:06:41.336Z,98308.13
2022-09-21T15:09:54.510Z,98306.41
2022-09-21T15:12:30.040Z,98300.97
2022-09-21T15:15:21.944Z,98306.75
2022-09-21T15:17:58.623Z,98301.97
2022-09-21T15:20:29.559Z,98299.63
2022-09-21T15:23:00.920Z,98293.31
2022-09-21T15:25:33.483Z,98299.50
2022-09-21T15:28:02.215Z,98305.66
2022-09-21T15:30:33.789Z,98311.41
2022-09-21T15:33:03.811Z,98296.19
2022-09-21T15:35:33.959Z,98301.69
2022-09-21T15:38:03.781Z,98303.47
2022-09-21T15:40:36.324Z,98300.91
2022-09-21T15:43:09.318Z,98300.19
2022-09-21T15:45:51.389Z,98302.19
2022-09-21T15:48:20.661Z,98308.72
2022-09-21T15:50:52.987Z,98309.19
2022-09-21T15:53:27.408Z,98308.47
2022-09-21T15:55:55.818Z,98300.66
2022-09-21T15:58:37.121Z,98298.47
2022-09-21T16:01:11.340Z,98304.31
2022-09-21T16:03:40.722Z,98310.81
2022-09-21T16:06:27.676Z,98304.03
2022-09-21T16:08:57.441Z,98308.50
2022-09-21T16:11:37.825Z,98314.16
2022-09-21T16:14:31.025Z,98317.13
2022-09-21T16:17:27.592Z,98322.06
2022-09-21T16:20:17.306Z,98316.09
2022-09-21T16:22:48.453Z,98315.84
2022-09-21T16:25:32.701Z,98324.81
2022-09-21T16:28:04.473Z,98322.84
2022-09-21T16:30:48.881Z,98313.00
2022-09-21T16:33:43.961Z,98313.25
2022-09-21T16:36:42.611Z,98321.56
2022-09-21T16:39:17.367Z,98317.72
2022-09-21T16:42:00.159Z,98319.63
2022-09-21T16:44:35.403Z,98320.31
2022-09-21T16:47:05.188Z,98325.56
2022-09-21T16:49:35.642Z,98319.22
2022-09-21T16:52:04.482Z,98320.78
2022-09-21T16:54:32.767Z,98321.66
2022-09-21T16:57:03.940Z,98324.56
2022-09-21T16:59:33.242Z,98319.41
2022-09-21T17:02:04.226Z,98328.34
2022-09-21T17:04:36.094Z,98320.66
2022-09-21T17:07:06.076Z,98319.69
2022-09-21T17:09:38.434Z,98325.22
2022-09-21T17:12:11.568Z,98328.13
2022-09-21T17:14:46.699Z,98325.63
2022-09-21T17:17:20.714Z,98323.50
2022-09-21T17:19:50.880Z,98324.34
2022-09-21T17:22:19.700Z,98323.66
2022-09-21T17:24:52.124Z,98323.19
2022-09-21T17:27:26.665Z,98335.91
2022-09-21T17:29:56.476Z,98325.53
2022-09-21T17:32:25.791Z,98328.22
2022-09-21T17:35:01.659Z,98334.56
2022-09-21T17:37:30.014Z,98336.41
2022-09-21T17:39:59.211Z,98339.22
2022-09-21T17:42:29.680Z,98338.22
2022-09-21T17:45:16.775Z,98338.34
2022-09-21T17:47:45.543Z,98341.84
2022-09-21T17:50:24.334Z,98342.81
2022-09-21T17:53:11.203Z,98348.16
2022-09-21T17:55:40.565Z,98350.94
2022-09-21T17:58:39.854Z,98365.41
2022-09-21T18:01:15.585Z,98359.03
2022-09-21T18:03:44.657Z,98359.00
2022-09-21T18:06:14.527Z,98361.63
2022-09-21T18:08:43.423Z,98366.06
2022-09-21T18:11:31.807Z,98367.19
2022-09-21T18:14:10.382Z,98371.81
2022-09-21T18:16:54.266Z,98364.06
2022-09-21T18:19:38.177Z,98366.50
2022-09-21T18:22:18.454Z,98367.28
2022-09-21T18:24:47.698Z,98370.59
2022-09-21T18:27:18.655Z,98368.53
2022-09-21T18:29:49.115Z,98371.63
2022-09-21T18:32:43.799Z,98374.22
2022-09-21T18:35:44.945Z,98381.16
2022-09-21T18:38:25.688Z,98381.94
2022-09-21T18:41:13.906Z,98375.41
2022-09-21T18:43:59.169Z,98370.81
2022-09-21T18:46:38.285Z,98372.13
2022-09-21T18:49:17.238Z,98384.22
2022-09-21T18:51:51.967Z,98374.69
2022-09-21T18:54:24.092Z,98372.50
2022-09-21T18:56:52.988Z,98374.59
2022-09-21T18:59:22.158Z,98373.38
2022-09-21T19:01:53.131Z,98382.69
2022-09-21T19:04:22.312Z,98379.47
2022-09-21T19:06:59.919Z,98372.22
2022-09-21T19:09:44.546Z,98373.81
2022-09-21T19:12:23.459Z,98380.88
2022-09-21T19:15:03.798Z,98378.53
2022-09-21T19:17:59.331Z,98381.75
2022-09-21T19:20:44.504Z,98390.31
2022-09-21T19:23:30.226Z,98387.25
2022-09-21T19:26:05.862Z,98387.69
2022-09-21T19:29:02.861Z,98382.13
2022-09-21T19:31:33.084Z,98383.53
2022-09-21T19:34:15.440Z,98388.63
2022-09-21T19:36:44.973Z,98384.69
2022-09-21T19:39:13.877Z,98382.31
2022-09-21T19:41:59.436Z,98382.09
2022-09-21T19:44:46.028Z,98383.50
2022-09-21T19:47:25.767Z,98383.09
2022-09-21T19:50:00.151Z,98372.03
2022-09-21T19:52:32.901Z,98384.81
2022-09-21T19:55:19.481Z,98385.09
2022-09-21T19:58:02.631Z,98381.88
2022-09-21T20:00:32.567Z,98382.44
2022-09-21T20:03:07.268Z,98381.34
2022-09-21T20:05:48.575Z,98383.72
2022-09-21T20:08:24.009Z,98382.34
2022-09-21T20:11:10.053Z,98385.53
2022-09-21T20:13:57.779Z,98387.75
2022-09-21T20:16:38.899Z,98386.50
2022-09-21T20:19:20.968Z,98384.41
2022-09-21T20:22:00.453Z,98387.50
2022-09-21T20:24:34.738Z,98378.13
2022-09-21T20:27:07.427Z,98380.06
2022-09-21T20:29:35.812Z,98376.72
2022-09-21T20:32:04.151Z,98376.16
2022-09-21T20:34:32.785Z,98380.91
2022-09-21T20:37:02.359Z,98375.88
2022-09-21T20:39:30.633Z,98377.84
2022-09-21T20:41:59.603Z,98382.44
2022-09-21T20:44:27.838Z,98378.25
2022-09-21T20:46:56.117Z,98381.47
2022-09-21T20:49:24.380Z,98387.88
2022-09-21T20:51:52.661Z,98389.16
2022-09-21T20:54:23.230Z,98384.25
2022-09-21T20:56:51.458Z,98385.38
2022-09-21T20:59:19.717Z,98392.75
2022-09-21T21:01:48.097Z,98387.00
2022-09-21T21:04:16.646Z,98394.44
2022-09-21T21:06:45.411Z,98393.28
2022-09-21T21:09:13.663Z,98404.19
2022-09-21T21:11:43.257Z,98400.97
2022-09-21T21:14:11.509Z,98403.03
2022-09-21T21:16:39.814Z,98396.31
2022-09-21T21:19:08.155Z,98387.78
2022-09-21T21:21:36.668Z,98384.44
2022-09-21T21:24:22.753Z,98378.53
2022-09-21T21:27:02.614Z,98385.34
2022-09-21T21:29:32.015Z,98382.94
2022-09-21T21:32:00.659Z,98376.34
2022-09-21T21:34:29.222Z,98380.13
2022-09-21T21:36:57.580Z,98378.56
2022-09-21T21:39:25.895Z,98384.03
2022-09-21T21:41:55.546Z,98384.16
2022-09-21T21:44:23.934Z,98384.41
2022-09-21T21:46:53.355Z,98389.84
2022-09-21T21:49:21.903Z,98389.13
2022-09-21T21:51:50.460Z,98385.81
2022-09-21T21:54:19.463Z,98384.22
2022-09-21T21:56:47.865Z,98388.97
2022-09-21T21:59:18.128Z,98392.84
2022-09-21T22:01:46.855Z,98386.13
2022-09-21T22:04:15.662Z,98387.38
2022-09-21T22:06:44.345Z,98381.63
2022-09-21T22:09:14.743Z,98385.50
2022-09-21T22:11:43.106Z,98382.41
2022-09-21T22:14:11.667Z,98385.56
2022-09-21T22:16:41.412Z,98386.56
2022-09-21T22:19:10.222Z,98382.38
2022-09-21T22:21:42.449Z,98387.06
2022-09-21T22:24:11.366Z,98375.06
2022-09-21T22:26:42.044Z,98377.00
2022-09-21T22:29:13.162Z,98372.78
2022-09-21T22:31:45.283Z,98370.41
2022-09-21T22:34:14.770Z,98369.81
2022-09-21T22:36:44.357Z,98369.22
2022-09-21T22:39:13.623Z,98366.00
2022-09-21T22:41:43.446Z,98365.41
2022-09-21T22:44:12.287Z,98367.34
2022-09-21T22:46:42.233Z,98364.00
2022-09-21T22:49:10.568Z,98371.09
2022-09-21T22:51:39.011Z,98369.44
2022-09-21T22:54:07.750Z,98368.69
2022-09-21T22:56:36.491Z,98367.16
2022-09-21T22:59:06.529Z,98366.56
2022-09-21T23:01:37.513Z,98364.16
2022-09-21T23:04:09.905Z,98356.47
2022-09-21T23:06:41.390Z,98355.78
2022-09-21T23:09:14.042Z,98356.00
2022-09-21T23:11:47.400Z,98357.19
2022-09-21T23:14:16.745Z,98349.38
2022-09-21T23:16:45.277Z,98342.41
2022-09-21T23:19:16.419Z,98346.16
2022-09-21T23:21:46.911Z,98343.53
2022-09-21T23:24:15.383Z,98344.59
2022-09-21T23:26:45.609Z,98341.13
2022-09-21T23:29:16.571Z,98346.53
2022-09-21T23:31:46.371Z,98343.91
2022-09-21T23:34:17.323Z,98351.38
2022-09-21T23:36:46.676Z,98351.63
2022-09-21T23:39:16.609Z,98345.72
2022-09-21T23:41:45.162Z,98342.38
2022-09-21T23:44:13.697Z,98339.97
2022-09-21T23:46:42.682Z,98348.06
2022-09-21T23:49:11.318Z,98350.09
2022-09-21T23:51:41.111Z,98352.03
2022-09-21T23:54:09.825Z,98355.91
2022-09-21T23:56:38.275Z,98349.91
2022-09-21T23:59:06.569Z,98345.69
